Terminal Aerodrome Forecast
Issued by NWS Goodland, KS

Home | Current Version | Previous Version | Text Only | Print | Product List | Glossary On
Versions: 1 2 3 4 5 6 7 8 9 10 11 12 13 14 15 16 17
000
FTUS43 KGLD 241748
TAFGLD
TAF
KGLD 241748Z 2418/2518 31019G28KT P6SM BKN150
     FM250000 31014KT P6SM SKC
     FM250700 24007KT P6SM SCT140
     FM251700 28010KT P6SM FEW200=

USA.gov is the U.S. government's official web portal to all federal, state and local government web resources and services.